createdAt,value
2018-01-14T00:00:43.041Z,16.35
2018-01-14T00:01:54.010Z,16.67
2018-01-14T00:03:00.238Z,16.77
2018-01-14T00:04:06.460Z,16.30
2018-01-14T00:05:12.704Z,16.40
2018-01-14T00:06:18.871Z,16.30
2018-01-14T00:07:25.026Z,16.27
2018-01-14T00:08:31.226Z,11.63
2018-01-14T00:09:37.040Z,17.20
2018-01-14T00:10:43.030Z,16.67
2018-01-14T00:11:56.046Z,16.80
2018-01-14T00:13:02.241Z,16.05
2018-01-14T00:14:12.425Z,15.73
2018-01-14T00:15:18.587Z,16.92
2018-01-14T00:16:24.772Z,17.80
2018-01-14T00:17:32.853Z,16.75
2018-01-14T00:18:39.038Z,16.70
2018-01-14T00:19:45.260Z,17.02
2018-01-14T00:20:51.466Z,16.20
2018-01-14T00:21:57.665Z,16.77
2018-01-14T00:23:03.870Z,16.48
2018-01-14T00:24:10.344Z,17.05
2018-01-14T00:25:16.577Z,18.02
2018-01-14T00:26:27.992Z,17.55
2018-01-14T00:27:35.075Z,18.45
2018-01-14T00:28:41.303Z,16.30
2018-01-14T00:29:47.505Z,17.95
2018-01-14T00:30:53.748Z,17.23
2018-01-14T00:31:59.903Z,18.30
2018-01-14T00:33:06.225Z,17.05
2018-01-14T00:34:12.536Z,17.90
2018-01-14T00:35:18.671Z,16.85
2018-01-14T00:36:24.473Z,17.25
2018-01-14T00:37:30.683Z,18.33
2018-01-14T00:38:36.872Z,15.70
2018-01-14T00:39:43.046Z,17.40
2018-01-14T00:40:51.098Z,18.60
2018-01-14T00:41:57.303Z,18.52
2018-01-14T00:43:03.517Z,16.98
2018-01-14T00:44:09.688Z,17.40
2018-01-14T00:45:15.826Z,17.85
2018-01-14T00:46:22.048Z,16.83
2018-01-14T00:47:28.196Z,18.77
2018-01-14T00:48:34.360Z,17.58
2018-01-14T00:49:40.552Z,18.98
2018-01-14T00:50:46.755Z,17.33
2018-01-14T00:51:52.966Z,20.25
2018-01-14T00:52:59.135Z,18.55
2018-01-14T00:54:05.009Z,18.67
2018-01-14T00:55:13.153Z,19.05
2018-01-14T00:56:19.378Z,18.65
2018-01-14T00:57:25.562Z,19.17
2018-01-14T00:58:31.904Z,18.48
2018-01-14T00:59:38.062Z,18.27
2018-01-14T01:00:44.220Z,16.83
2018-01-14T01:01:50.136Z,19.35
2018-01-14T01:02:56.323Z,19.12
2018-01-14T01:04:02.524Z,20.65
2018-01-14T01:05:08.694Z,17.02
2018-01-14T01:06:14.895Z,19.05
2018-01-14T01:07:21.071Z,18.50
2018-01-14T01:08:27.236Z,16.98
2018-01-14T01:09:33.415Z,19.40
2018-01-14T01:10:39.587Z,15.65
2018-01-14T01:11:45.811Z,20.52
2018-01-14T01:12:52.047Z,19.73
2018-01-14T01:14:03.391Z,16.55
2018-01-14T01:15:09.567Z,18.55
2018-01-14T01:16:16.676Z,19.48
2018-01-14T01:17:22.939Z,17.45
2018-01-14T01:18:29.973Z,19.12
2018-01-14T01:19:36.166Z,16.62
2018-01-14T01:20:42.405Z,17.73
2018-01-14T01:21:50.559Z,19.05
2018-01-14T01:22:59.684Z,16.83
2018-01-14T01:24:05.875Z,15.98
2018-01-14T01:25:12.065Z,18.05
2018-01-14T01:26:18.088Z,18.98
2018-01-14T01:27:24.274Z,18.48
2018-01-14T01:28:30.622Z,18.77
2018-01-14T01:29:36.614Z,20.05
2018-01-14T01:30:42.911Z,18.48
2018-01-14T01:31:49.108Z,18.70
2018-01-14T01:32:55.316Z,19.95
2018-01-14T01:34:01.539Z,18.90
2018-01-14T01:35:07.504Z,19.37
2018-01-14T01:36:13.765Z,18.02
2018-01-14T01:37:19.934Z,19.35
2018-01-14T01:38:26.114Z,20.37
2018-01-14T01:39:32.388Z,19.20
2018-01-14T01:40:38.587Z,18.80
2018-01-14T01:41:44.815Z,19.00
2018-01-14T01:42:51.160Z,19.30
2018-01-14T01:43:58.736Z,18.60
2018-01-14T01:45:05.760Z,21.00
2018-01-14T01:46:13.320Z,20.05
2018-01-14T01:47:20.460Z,16.37
2018-01-14T01:48:27.015Z,19.67
2018-01-14T01:49:33.472Z,19.58
2018-01-14T01:50:41.037Z,18.10
2018-01-14T01:51:47.849Z,18.52
2018-01-14T01:52:54.566Z,18.65
2018-01-14T01:54:01.601Z,18.08
2018-01-14T01:55:08.542Z,18.80
2018-01-14T01:56:15.246Z,19.65
2018-01-14T01:57:21.880Z,19.20
2018-01-14T01:58:28.545Z,19.08
2018-01-14T01:59:35.431Z,19.12
2018-01-14T02:00:41.812Z,20.73
2018-01-14T02:01:47.386Z,19.90
2018-01-14T02:02:54.175Z,21.00
2018-01-14T02:04:00.842Z,20.02
2018-01-14T02:05:07.798Z,19.98
2018-01-14T02:06:14.086Z,21.17
2018-01-14T02:07:20.731Z,20.42
2018-01-14T02:08:26.940Z,19.92
2018-01-14T02:09:33.490Z,21.20
2018-01-14T02:10:39.663Z,20.67
2018-01-14T02:11:46.480Z,19.60
2018-01-14T02:12:53.594Z,20.45
2018-01-14T02:14:00.575Z,19.58
2018-01-14T02:15:07.084Z,22.05
2018-01-14T02:16:14.018Z,22.10
2018-01-14T02:17:20.898Z,18.90
2018-01-14T02:18:27.517Z,18.95
2018-01-14T02:19:42.205Z,19.67
2018-01-14T02:20:49.044Z,20.80
2018-01-14T02:21:55.626Z,20.50
2018-01-14T02:23:02.048Z,19.02
2018-01-14T02:24:08.810Z,19.87
2018-01-14T02:25:15.419Z,22.58
2018-01-14T02:26:22.011Z,22.42
2018-01-14T02:27:28.871Z,21.50
2018-01-14T02:28:35.151Z,23.62
2018-01-14T02:29:42.225Z,16.12
2018-01-14T02:30:48.881Z,22.70
2018-01-14T02:31:55.525Z,21.17
2018-01-14T02:33:01.954Z,23.58
2018-01-14T02:34:08.392Z,22.50
2018-01-14T02:35:14.767Z,20.25
2018-01-14T02:36:22.594Z,22.50
2018-01-14T02:37:29.024Z,22.20
2018-01-14T02:38:40.507Z,21.85
2018-01-14T02:39:47.163Z,22.62
2018-01-14T02:40:53.957Z,21.05
2018-01-14T02:42:00.689Z,21.55
2018-01-14T02:43:07.994Z,22.10
2018-01-14T02:44:14.384Z,22.02
2018-01-14T02:45:21.347Z,20.67
2018-01-14T02:46:27.790Z,21.12
2018-01-14T02:47:34.552Z,23.00
2018-01-14T02:48:41.101Z,24.30
2018-01-14T02:49:50.460Z,20.50
2018-01-14T02:50:57.045Z,22.87
2018-01-14T02:52:03.378Z,20.85
2018-01-14T02:53:09.576Z,23.12
2018-01-14T02:54:16.270Z,21.52
2018-01-14T02:55:23.730Z,20.12
2018-01-14T02:56:31.375Z,22.13
2018-01-14T02:57:38.525Z,21.00
2018-01-14T02:58:45.398Z,22.05
2018-01-14T02:59:52.332Z,23.02
2018-01-14T03:01:00.335Z,23.17
2018-01-14T03:02:07.625Z,22.60
2018-01-14T03:03:14.817Z,23.00
2018-01-14T03:04:23.054Z,21.80
2018-01-14T03:05:31.101Z,21.67
2018-01-14T03:06:38.345Z,25.20
2018-01-14T03:07:51.957Z,22.52
2018-01-14T03:08:58.200Z,22.90
2018-01-14T03:10:04.399Z,23.12
2018-01-14T03:11:10.591Z,23.70
2018-01-14T03:12:16.849Z,20.65
2018-01-14T03:13:23.051Z,23.20
2018-01-14T03:14:29.274Z,22.13
2018-01-14T03:15:37.141Z,21.05
2018-01-14T03:16:43.053Z,21.98
2018-01-14T03:17:49.330Z,20.40
2018-01-14T03:18:55.482Z,21.80
2018-01-14T03:20:01.633Z,21.52
2018-01-14T03:21:07.822Z,22.90
2018-01-14T03:22:14.045Z,23.10
2018-01-14T03:23:20.260Z,22.30
2018-01-14T03:24:26.407Z,19.90
2018-01-14T03:25:32.637Z,23.27
2018-01-14T03:26:38.804Z,21.42
2018-01-14T03:27:45.024Z,21.98
2018-01-14T03:28:51.187Z,22.02
2018-01-14T03:29:57.388Z,20.70
2018-01-14T03:31:03.576Z,22.42
2018-01-14T03:32:09.775Z,23.35
2018-01-14T03:33:15.944Z,21.00
2018-01-14T03:34:22.160Z,21.85
2018-01-14T03:35:28.400Z,21.25
2018-01-14T03:36:34.651Z,21.87
2018-01-14T03:37:40.815Z,23.50
2018-01-14T03:38:46.984Z,23.33
2018-01-14T03:39:53.158Z,21.45
2018-01-14T03:40:59.366Z,23.38
2018-01-14T03:42:05.541Z,23.00
2018-01-14T03:43:11.854Z,23.15
2018-01-14T03:44:18.056Z,23.70
2018-01-14T03:45:24.267Z,22.33
2018-01-14T03:46:30.465Z,25.60
2018-01-14T03:47:36.655Z,23.20
2018-01-14T03:48:42.906Z,22.85
2018-01-14T03:49:49.096Z,26.55
2018-01-14T03:50:55.301Z,24.80
2018-01-14T03:52:05.546Z,23.85
2018-01-14T03:53:11.819Z,25.12
2018-01-14T03:54:18.939Z,25.05
2018-01-14T03:55:25.179Z,23.58
2018-01-14T03:56:31.404Z,23.48
2018-01-14T03:57:37.673Z,23.48
2018-01-14T03:58:45.907Z,24.20
2018-01-14T03:59:52.085Z,22.95
2018-01-14T04:00:58.308Z,22.90
2018-01-14T04:02:04.579Z,22.42
2018-01-14T04:03:10.763Z,24.50
2018-01-14T04:04:17.916Z,21.35
2018-01-14T04:05:24.128Z,24.30
2018-01-14T04:06:30.338Z,22.92
2018-01-14T04:07:36.552Z,23.67
2018-01-14T04:08:42.841Z,22.08
2018-01-14T04:09:49.014Z,25.30
2018-01-14T04:10:55.189Z,22.23
2018-01-14T04:12:01.399Z,23.60
2018-01-14T04:13:07.610Z,21.37
2018-01-14T04:14:13.793Z,22.77
2018-01-14T04:15:19.788Z,21.00
2018-01-14T04:16:25.990Z,22.52
2018-01-14T04:17:32.195Z,23.15
2018-01-14T04:18:38.203Z,24.35
2018-01-14T04:19:44.419Z,22.87
2018-01-14T04:20:50.644Z,23.42
2018-01-14T04:21:56.834Z,22.75
2018-01-14T04:23:03.890Z,22.98
2018-01-14T04:24:10.155Z,22.23
2018-01-14T04:25:16.322Z,23.62
2018-01-14T04:26:22.579Z,21.33
2018-01-14T04:27:28.847Z,22.92
2018-01-14T04:28:35.033Z,25.40
2018-01-14T04:29:42.140Z,23.42
2018-01-14T04:30:48.344Z,23.02
2018-01-14T04:31:54.530Z,24.20
2018-01-14T04:33:00.806Z,24.08
2018-01-14T04:34:06.954Z,23.73
2018-01-14T04:35:13.109Z,24.20
2018-01-14T04:36:19.292Z,22.87
2018-01-14T04:37:25.428Z,21.75
2018-01-14T04:38:31.864Z,24.17
2018-01-14T04:39:38.043Z,23.20
2018-01-14T04:40:44.183Z,23.25
2018-01-14T04:41:50.365Z,22.25
2018-01-14T04:42:56.723Z,24.90
2018-01-14T04:44:02.867Z,22.52
2018-01-14T04:45:09.057Z,23.95
2018-01-14T04:46:15.195Z,23.02
2018-01-14T04:47:21.404Z,24.12
2018-01-14T04:48:27.586Z,21.37
2018-01-14T04:49:33.792Z,23.58
2018-01-14T04:50:39.989Z,22.90
2018-01-14T04:51:46.239Z,24.65
2018-01-14T04:52:52.483Z,22.80
2018-01-14T04:53:59.575Z,22.55
2018-01-14T04:55:05.820Z,24.37
2018-01-14T04:56:12.030Z,24.35
2018-01-14T04:57:18.215Z,21.30
2018-01-14T04:58:24.422Z,22.25
2018-01-14T04:59:30.831Z,25.27
2018-01-14T05:00:36.716Z,23.17
2018-01-14T05:01:42.846Z,24.45
2018-01-14T05:02:48.988Z,24.35
2018-01-14T05:03:55.223Z,23.98
2018-01-14T05:05:01.451Z,23.52
2018-01-14T05:06:07.635Z,23.33
2018-01-14T05:07:13.768Z,24.15
2018-01-14T05:08:20.002Z,20.70
2018-01-14T05:09:26.235Z,25.10
2018-01-14T05:10:32.468Z,23.17
2018-01-14T05:11:38.646Z,24.70
2018-01-14T05:12:44.816Z,23.35
2018-01-14T05:13:52.992Z,24.25
2018-01-14T05:14:59.154Z,21.48
2018-01-14T05:16:05.311Z,19.75
2018-01-14T05:17:11.534Z,23.58
2018-01-14T05:18:18.710Z,23.27
2018-01-14T05:19:24.884Z,23.20
2018-01-14T05:20:31.108Z,23.12
2018-01-14T05:21:37.273Z,23.35
2018-01-14T05:22:43.506Z,23.17
2018-01-14T05:23:49.811Z,21.70
2018-01-14T05:24:56.055Z,24.60
2018-01-14T05:26:02.246Z,25.17
2018-01-14T05:27:08.478Z,22.30
2018-01-14T05:28:14.652Z,23.27
2018-01-14T05:29:20.920Z,19.02
2018-01-14T05:30:27.093Z,22.58
2018-01-14T05:31:33.384Z,24.17
2018-01-14T05:32:39.612Z,24.37
2018-01-14T05:33:45.780Z,23.05
2018-01-14T05:34:52.005Z,23.65
2018-01-14T05:35:58.211Z,23.75
2018-01-14T05:37:10.368Z,25.23
2018-01-14T05:38:16.580Z,22.52
2018-01-14T05:39:22.764Z,24.65
2018-01-14T05:40:28.927Z,22.77
2018-01-14T05:41:35.136Z,20.80
2018-01-14T05:42:41.291Z,24.35
2018-01-14T05:43:47.548Z,25.55
2018-01-14T05:44:54.043Z,22.75
2018-01-14T05:46:00.201Z,24.65
2018-01-14T05:47:06.374Z,24.77
2018-01-14T05:48:12.579Z,23.77
2018-01-14T05:49:18.784Z,20.00
2018-01-14T05:50:24.992Z,24.17
2018-01-14T05:51:31.200Z,25.02
2018-01-14T05:52:37.443Z,22.42
2018-01-14T05:53:43.596Z,25.40
2018-01-14T05:54:49.781Z,23.52
2018-01-14T05:55:55.960Z,23.95
2018-01-14T05:57:02.187Z,24.27
2018-01-14T05:58:08.334Z,24.17
2018-01-14T05:59:14.549Z,24.33
2018-01-14T06:00:20.733Z,24.80
2018-01-14T06:01:26.917Z,22.08
2018-01-14T06:02:33.131Z,23.58
2018-01-14T06:03:39.325Z,25.60
2018-01-14T06:04:45.572Z,20.08
2018-01-14T06:05:51.418Z,24.27
2018-01-14T06:06:57.638Z,25.60
2018-01-14T06:08:04.035Z,25.12
2018-01-14T06:09:09.832Z,22.00
2018-01-14T06:10:15.916Z,25.75
2018-01-14T06:11:22.101Z,23.38
2018-01-14T06:12:28.281Z,22.85
2018-01-14T06:13:34.616Z,22.10
2018-01-14T06:14:40.794Z,23.42
2018-01-14T06:15:46.995Z,21.92
2018-01-14T06:16:53.169Z,24.00
2018-01-14T06:17:59.355Z,25.77
2018-01-14T06:19:05.224Z,24.45
2018-01-14T06:20:11.374Z,24.40
2018-01-14T06:21:17.547Z,23.90
2018-01-14T06:22:23.768Z,24.17
2018-01-14T06:23:29.983Z,24.25
2018-01-14T06:24:36.115Z,23.52
2018-01-14T06:25:42.284Z,23.77
2018-01-14T06:26:48.541Z,22.55
2018-01-14T06:27:54.831Z,24.25
2018-01-14T06:29:01.015Z,23.25
2018-01-14T06:30:07.241Z,24.15
2018-01-14T06:31:13.423Z,21.40
2018-01-14T06:32:19.623Z,22.02
2018-01-14T06:33:25.907Z,23.35
2018-01-14T06:34:32.139Z,24.37
2018-01-14T06:35:38.383Z,22.70
2018-01-14T06:36:44.852Z,22.55
2018-01-14T06:37:51.031Z,22.33
2018-01-14T06:38:57.379Z,22.17
2018-01-14T06:40:03.628Z,22.52
2018-01-14T06:41:09.846Z,23.00
2018-01-14T06:42:16.011Z,22.58
2018-01-14T06:43:23.131Z,23.80
2018-01-14T06:44:29.349Z,21.55
2018-01-14T06:45:35.552Z,22.50
2018-01-14T06:46:41.744Z,22.02
2018-01-14T06:47:47.917Z,22.35
2018-01-14T06:48:54.150Z,22.55
2018-01-14T06:50:00.309Z,21.75
2018-01-14T06:51:06.521Z,21.87
2018-01-14T06:52:12.707Z,21.17
2018-01-14T06:53:18.929Z,22.02
2018-01-14T06:54:25.116Z,22.15
2018-01-14T06:55:31.361Z,21.98
2018-01-14T06:56:37.563Z,22.98
2018-01-14T06:57:44.086Z,23.27
2018-01-14T06:58:50.294Z,22.92
2018-01-14T06:59:56.480Z,21.90
2018-01-14T07:01:02.706Z,22.45
2018-01-14T07:02:08.889Z,21.40
2018-01-14T07:03:15.055Z,23.25
2018-01-14T07:04:21.221Z,22.52
2018-01-14T07:05:27.445Z,20.52
2018-01-14T07:06:33.359Z,21.50
2018-01-14T07:07:39.548Z,23.77
2018-01-14T07:08:45.700Z,23.02
2018-01-14T07:09:51.951Z,22.58
2018-01-14T07:11:02.046Z,22.80
2018-01-14T07:12:08.259Z,22.60
2018-01-14T07:13:14.420Z,22.33
2018-01-14T07:14:20.677Z,24.05
2018-01-14T07:15:26.926Z,21.52
2018-01-14T07:16:33.151Z,23.92
2018-01-14T07:17:39.310Z,21.90
2018-01-14T07:18:45.515Z,21.00
2018-01-14T07:19:51.686Z,23.00
2018-01-14T07:20:57.932Z,23.20
2018-01-14T07:22:04.091Z,23.00
2018-01-14T07:23:10.330Z,22.30
2018-01-14T07:24:16.625Z,20.77
2018-01-14T07:25:22.827Z,21.40
2018-01-14T07:26:29.016Z,23.02
2018-01-14T07:27:35.188Z,22.27
2018-01-14T07:28:41.393Z,21.62
2018-01-14T07:29:47.559Z,21.92
2018-01-14T07:30:53.754Z,22.70
2018-01-14T07:31:59.891Z,22.00
2018-01-14T07:33:06.153Z,21.98
2018-01-14T07:34:12.316Z,21.65
2018-01-14T07:35:18.602Z,24.83
2018-01-14T07:36:24.814Z,23.58
2018-01-14T07:37:30.952Z,23.30
2018-01-14T07:38:37.126Z,22.73
2018-01-14T07:39:43.287Z,22.13
2018-01-14T07:40:49.443Z,23.98
2018-01-14T07:41:55.673Z,24.80
2018-01-14T07:43:01.820Z,23.92
2018-01-14T07:44:08.003Z,23.45
2018-01-14T07:45:15.002Z,22.30
2018-01-14T07:46:20.949Z,24.00
2018-01-14T07:47:27.286Z,24.87
2018-01-14T07:48:33.819Z,22.42
2018-01-14T07:49:40.194Z,23.67
2018-01-14T07:50:46.397Z,24.20
2018-01-14T07:51:52.567Z,22.55
2018-01-14T07:52:58.721Z,21.37
2018-01-14T07:54:05.730Z,22.98
2018-01-14T07:55:12.888Z,22.05
2018-01-14T07:56:19.087Z,22.30
2018-01-14T07:57:25.317Z,24.35
2018-01-14T07:58:31.484Z,24.10
2018-01-14T07:59:38.128Z,22.92
2018-01-14T08:00:45.923Z,22.92
2018-01-14T08:01:52.259Z,21.67
2018-01-14T08:03:00.535Z,23.08
2018-01-14T08:04:09.286Z,22.17
2018-01-14T08:05:16.084Z,21.70
2018-01-14T08:06:23.182Z,23.30
2018-01-14T08:07:30.741Z,22.85
2018-01-14T08:08:37.571Z,22.85
2018-01-14T08:09:43.935Z,23.40
2018-01-14T08:10:51.556Z,21.55
2018-01-14T08:12:01.263Z,22.35
2018-01-14T08:13:08.906Z,20.95
2018-01-14T08:14:17.701Z,23.00
2018-01-14T08:15:25.717Z,22.60
2018-01-14T08:16:32.553Z,22.95
2018-01-14T08:17:39.935Z,20.90
2018-01-14T08:18:46.637Z,20.90
2018-01-14T08:19:52.841Z,21.55
2018-01-14T08:20:59.024Z,21.33
2018-01-14T08:22:05.638Z,20.85
2018-01-14T08:23:11.926Z,21.80
2018-01-14T08:24:19.445Z,23.42
2018-01-14T08:25:26.557Z,23.70
2018-01-14T08:26:34.539Z,22.70
2018-01-14T08:27:42.591Z,22.08
2018-01-14T08:28:49.192Z,22.13
2018-01-14T08:29:56.029Z,21.77
2018-01-14T08:31:03.619Z,21.42
2018-01-14T08:32:15.629Z,21.98
2018-01-14T08:33:22.331Z,23.35
2018-01-14T08:34:28.993Z,22.45
2018-01-14T08:35:36.024Z,21.15
2018-01-14T08:36:44.165Z,23.92
2018-01-14T08:37:50.447Z,21.45
2018-01-14T08:38:56.672Z,22.62
2018-01-14T08:40:03.251Z,22.60
2018-01-14T08:41:09.945Z,23.55
2018-01-14T08:42:16.378Z,22.02
2018-01-14T08:43:22.761Z,22.50
2018-01-14T08:44:29.399Z,21.55
2018-01-14T08:45:35.878Z,22.37
2018-01-14T08:46:43.284Z,21.20
2018-01-14T08:47:52.312Z,22.92
2018-01-14T08:48:59.921Z,23.55
2018-01-14T08:50:06.922Z,23.35
2018-01-14T08:51:13.914Z,21.70
2018-01-14T08:52:22.364Z,20.88
2018-01-14T08:53:28.977Z,21.20
2018-01-14T08:54:35.806Z,22.23
2018-01-14T08:55:42.289Z,22.62
2018-01-14T08:56:48.848Z,21.92
2018-01-14T08:57:55.153Z,22.13
2018-01-14T08:59:07.321Z,17.23
2018-01-14T09:00:13.772Z,22.13
2018-01-14T09:01:26.659Z,21.12
2018-01-14T09:02:33.525Z,22.00
2018-01-14T09:03:40.921Z,22.10
2018-01-14T09:04:47.082Z,22.45
2018-01-14T09:05:53.263Z,21.17
2018-01-14T09:07:00.559Z,21.77
2018-01-14T09:08:07.202Z,21.62
2018-01-14T09:09:13.996Z,22.70
2018-01-14T09:10:20.629Z,22.95
2018-01-14T09:11:26.648Z,21.15
2018-01-14T09:12:33.546Z,18.95
2018-01-14T09:13:39.820Z,20.48
2018-01-14T09:14:45.992Z,22.87
2018-01-14T09:15:52.959Z,21.62
2018-01-14T09:16:59.756Z,19.65
2018-01-14T09:18:06.353Z,23.73
2018-01-14T09:19:13.416Z,22.73
2018-01-14T09:20:19.685Z,18.48
2018-01-14T09:21:27.009Z,23.75
2018-01-14T09:22:33.734Z,22.92
2018-01-14T09:23:40.305Z,22.77
2018-01-14T09:24:46.914Z,22.10
2018-01-14T09:25:53.386Z,22.15
2018-01-14T09:26:59.561Z,22.37
2018-01-14T09:28:06.283Z,23.30
2018-01-14T09:29:12.422Z,23.40
2018-01-14T09:30:17.886Z,23.15
2018-01-14T09:31:24.025Z,21.30
2018-01-14T09:32:30.258Z,23.55
2018-01-14T09:33:36.478Z,24.40
2018-01-14T09:34:42.675Z,22.65
2018-01-14T09:35:49.172Z,23.95
2018-01-14T09:36:55.408Z,23.87
2018-01-14T09:38:01.651Z,24.10
2018-01-14T09:39:07.811Z,23.05
2018-01-14T09:40:13.994Z,23.77
2018-01-14T09:41:21.152Z,22.92
2018-01-14T09:42:31.484Z,20.62
2018-01-14T09:43:37.746Z,22.48
2018-01-14T09:44:43.899Z,24.67
2018-01-14T09:45:50.108Z,23.60
2018-01-14T09:46:56.241Z,22.52
2018-01-14T09:48:02.415Z,22.92
2018-01-14T09:49:08.668Z,23.23
2018-01-14T09:50:14.904Z,21.60
2018-01-14T09:51:21.182Z,23.83
2018-01-14T09:52:27.430Z,22.27
2018-01-14T09:53:33.942Z,22.92
2018-01-14T09:54:40.320Z,23.48
2018-01-14T09:55:47.374Z,22.20
2018-01-14T09:56:53.508Z,22.23
2018-01-14T09:57:59.756Z,23.85
2018-01-14T09:59:06.026Z,22.42
2018-01-14T10:00:12.282Z,23.87
2018-01-14T10:01:18.530Z,24.67
2018-01-14T10:02:24.982Z,21.60
2018-01-14T10:03:33.220Z,22.55
2018-01-14T10:04:40.224Z,24.27
2018-01-14T10:05:46.888Z,18.73
2018-01-14T10:06:53.281Z,22.20
2018-01-14T10:07:59.764Z,23.65
2018-01-14T10:09:06.019Z,22.77
2018-01-14T10:10:12.365Z,21.83
2018-01-14T10:11:18.622Z,23.95
2018-01-14T10:12:24.848Z,22.95
2018-01-14T10:13:31.012Z,22.45
2018-01-14T10:14:37.714Z,23.38
2018-01-14T10:15:44.125Z,21.62
2018-01-14T10:16:50.835Z,23.23
2018-01-14T10:17:57.280Z,21.12
2018-01-14T10:19:03.611Z,24.37
2018-01-14T10:20:10.331Z,23.12
2018-01-14T10:21:17.019Z,23.85
2018-01-14T10:22:23.688Z,23.58
2018-01-14T10:23:31.472Z,22.62
2018-01-14T10:24:39.396Z,23.60
2018-01-14T10:25:46.609Z,21.60
2018-01-14T10:26:54.298Z,22.52
2018-01-14T10:28:03.869Z,24.23
2018-01-14T10:29:11.806Z,21.98
2018-01-14T10:30:20.684Z,22.17
2018-01-14T10:31:28.125Z,24.33
2018-01-14T10:32:35.911Z,23.65
2018-01-14T10:33:44.476Z,22.50
2018-01-14T10:34:52.498Z,23.33
2018-01-14T10:36:00.260Z,23.12
2018-01-14T10:37:10.311Z,22.75
2018-01-14T10:38:18.241Z,23.70
2018-01-14T10:39:25.258Z,22.35
2018-01-14T10:40:33.705Z,22.75
2018-01-14T10:41:41.962Z,22.65
2018-01-14T10:42:49.046Z,22.77
2018-01-14T10:43:56.515Z,22.58
2018-01-14T10:45:03.851Z,25.52
2018-01-14T10:46:13.615Z,23.30
2018-01-14T10:47:20.537Z,23.35
2018-01-14T10:48:28.526Z,21.70
2018-01-14T10:49:36.664Z,22.92
2018-01-14T10:50:44.405Z,22.50
2018-01-14T10:51:51.463Z,22.92
2018-01-14T10:52:59.264Z,23.50
2018-01-14T10:54:06.062Z,23.73
2018-01-14T10:55:13.226Z,25.15
2018-01-14T10:56:20.347Z,22.77
2018-01-14T10:57:28.795Z,24.10
2018-01-14T10:58:37.458Z,23.35
2018-01-14T10:59:46.016Z,24.10
2018-01-14T11:00:59.582Z,25.98
2018-01-14T11:02:06.990Z,22.48
2018-01-14T11:03:14.328Z,25.48
2018-01-14T11:04:21.816Z,23.20
2018-01-14T11:05:30.094Z,24.37
2018-01-14T11:06:37.930Z,24.00
2018-01-14T11:07:44.911Z,24.67
2018-01-14T11:08:52.110Z,24.33
2018-01-14T11:09:59.392Z,23.58
2018-01-14T11:11:06.533Z,22.77
2018-01-14T11:12:15.684Z,21.40
2018-01-14T11:13:24.835Z,22.62
2018-01-14T11:14:33.211Z,23.65
2018-01-14T11:15:41.272Z,22.62
2018-01-14T11:16:48.522Z,23.40
2018-01-14T11:17:57.187Z,24.52
2018-01-14T11:19:04.440Z,24.50
2018-01-14T11:20:14.052Z,24.35
2018-01-14T11:21:22.044Z,28.35
2018-01-14T11:22:29.421Z,25.67
2018-01-14T11:23:37.080Z,23.83
2018-01-14T11:24:44.080Z,23.23
2018-01-14T11:25:51.435Z,23.48
2018-01-14T11:26:59.323Z,18.20
2018-01-14T11:28:07.435Z,24.63
2018-01-14T11:29:27.303Z,23.50
2018-01-14T11:30:35.224Z,25.33
2018-01-14T11:31:43.063Z,24.85
2018-01-14T11:32:50.629Z,23.87
2018-01-14T11:33:57.671Z,24.20
2018-01-14T11:35:07.164Z,22.80
2018-01-14T11:36:14.739Z,22.75
2018-01-14T11:37:22.193Z,22.35
2018-01-14T11:38:30.127Z,22.00
2018-01-14T11:39:38.252Z,23.45
2018-01-14T11:40:47.896Z,24.27
2018-01-14T11:41:55.198Z,23.02
2018-01-14T11:43:02.651Z,23.73
2018-01-14T11:44:16.200Z,22.48
2018-01-14T11:45:24.001Z,19.67
2018-01-14T11:46:31.484Z,24.00
2018-01-14T11:47:41.766Z,15.88
2018-01-14T11:48:49.205Z,22.95
2018-01-14T11:49:56.943Z,23.58
2018-01-14T11:51:04.424Z,24.33
2018-01-14T11:52:11.747Z,25.15
2018-01-14T11:53:18.486Z,24.92
2018-01-14T11:54:25.730Z,24.05
2018-01-14T11:55:32.585Z,18.60
2018-01-14T11:56:39.418Z,23.42
2018-01-14T11:57:47.642Z,23.33
2018-01-14T11:58:54.711Z,21.40
2018-01-14T12:00:02.066Z,21.42
2018-01-14T12:01:09.227Z,22.83
2018-01-14T12:02:16.942Z,24.95
2018-01-14T12:03:23.521Z,26.10
2018-01-14T12:04:31.630Z,23.38
2018-01-14T12:05:39.579Z,21.87
2018-01-14T12:06:46.671Z,22.73
2018-01-14T12:07:53.789Z,23.98
2018-01-14T12:09:00.567Z,21.80
2018-01-14T12:10:07.751Z,22.80
2018-01-14T12:11:15.650Z,24.52
2018-01-14T12:12:22.906Z,22.37
2018-01-14T12:13:30.569Z,23.23
2018-01-14T12:14:37.747Z,19.30
2018-01-14T12:15:45.382Z,20.27
2018-01-14T12:16:52.844Z,23.77
2018-01-14T12:17:59.683Z,23.35
2018-01-14T12:19:06.606Z,18.35
2018-01-14T12:20:13.485Z,23.23
2018-01-14T12:21:22.740Z,23.20
2018-01-14T12:22:30.663Z,24.05
2018-01-14T12:23:38.294Z,23.73
2018-01-14T12:24:46.499Z,15.70
2018-01-14T12:25:53.935Z,20.35
2018-01-14T12:27:00.536Z,21.08
2018-01-14T12:28:07.224Z,22.80
2018-01-14T12:29:13.540Z,22.05
2018-01-14T12:30:19.798Z,22.27
2018-01-14T12:31:26.003Z,22.87
2018-01-14T12:32:43.549Z,23.12
2018-01-14T12:34:22.737Z,22.05
2018-01-14T12:35:46.839Z,22.87
2018-01-14T12:36:53.041Z,25.17
2018-01-14T12:37:59.928Z,23.83
2018-01-14T12:39:06.509Z,23.65
2018-01-14T12:40:13.080Z,23.92
2018-01-14T12:41:19.476Z,22.87
2018-01-14T12:42:26.816Z,19.60
2018-01-14T12:43:33.659Z,23.27
2018-01-14T12:44:39.852Z,23.05
2018-01-14T12:45:46.081Z,22.08
2018-01-14T12:46:52.289Z,22.98
2018-01-14T12:47:59.251Z,22.30
2018-01-14T12:49:05.389Z,20.65
2018-01-14T12:50:12.088Z,19.33
2018-01-14T12:51:18.404Z,23.73
2018-01-14T12:52:25.711Z,25.12
2018-01-14T12:53:31.966Z,22.35
2018-01-14T12:54:38.158Z,19.50
2018-01-14T12:55:45.135Z,18.75
2018-01-14T12:56:51.623Z,23.60
2018-01-14T12:57:57.827Z,22.65
2018-01-14T12:59:04.356Z,17.80
2018-01-14T13:00:10.593Z,21.37
2018-01-14T13:01:17.027Z,20.77
2018-01-14T13:02:23.301Z,22.58
2018-01-14T13:03:29.598Z,20.50
2018-01-14T13:04:36.226Z,20.20
2018-01-14T13:05:42.666Z,21.48
2018-01-14T13:06:50.068Z,22.55
2018-01-14T13:07:56.594Z,21.27
2018-01-14T13:09:03.624Z,22.15
2018-01-14T13:10:14.667Z,22.70
2018-01-14T13:11:22.255Z,22.83
2018-01-14T13:12:28.462Z,22.10
2018-01-14T13:13:36.096Z,22.25
2018-01-14T13:14:42.374Z,22.73
2018-01-14T13:15:48.752Z,21.30
2018-01-14T13:16:54.974Z,22.70
2018-01-14T13:18:01.349Z,22.08
2018-01-14T13:19:08.430Z,23.05
2018-01-14T13:20:14.723Z,22.23
2018-01-14T13:21:21.695Z,23.17
2018-01-14T13:22:28.468Z,20.23
2018-01-14T13:23:34.691Z,22.05
2018-01-14T13:24:40.965Z,21.20
2018-01-14T13:25:48.198Z,22.52
2018-01-14T13:26:54.567Z,22.95
2018-01-14T13:28:00.802Z,20.00
2018-01-14T13:29:07.834Z,21.15
2018-01-14T13:30:14.187Z,24.27
2018-01-14T13:31:20.866Z,20.70
2018-01-14T13:32:27.229Z,19.48
2018-01-14T13:33:33.488Z,21.27
2018-01-14T13:34:39.723Z,21.87
2018-01-14T13:35:46.125Z,16.50
2018-01-14T13:36:52.917Z,20.77
2018-01-14T13:37:59.160Z,20.60
2018-01-14T13:39:05.295Z,23.02
2018-01-14T13:40:12.335Z,22.02
2018-01-14T13:41:18.608Z,22.35
2018-01-14T13:42:24.857Z,16.48
2018-01-14T13:43:31.143Z,20.12
2018-01-14T13:44:38.331Z,16.52
2018-01-14T13:45:45.521Z,21.55
2018-01-14T13:46:53.805Z,23.15
2018-01-14T13:48:00.104Z,20.27
2018-01-14T13:49:06.672Z,18.73
2018-01-14T13:50:13.507Z,21.40
2018-01-14T13:51:20.327Z,21.35
2018-01-14T13:52:26.606Z,20.70
2018-01-14T13:53:32.823Z,20.10
2018-01-14T13:54:39.045Z,20.50
2018-01-14T13:55:45.349Z,20.83
2018-01-14T13:56:52.560Z,20.30
2018-01-14T13:57:59.196Z,20.30
2018-01-14T13:59:05.444Z,20.75
2018-01-14T14:00:11.774Z,19.62
2018-01-14T14:01:18.670Z,20.88
2018-01-14T14:02:24.915Z,19.65
2018-01-14T14:03:32.437Z,19.62
2018-01-14T14:04:38.318Z,20.50
2018-01-14T14:05:44.539Z,20.05
2018-01-14T14:06:50.793Z,20.58
2018-01-14T14:07:57.028Z,19.27
2018-01-14T14:09:03.371Z,20.45
2018-01-14T14:10:10.296Z,21.67
2018-01-14T14:11:16.578Z,16.10
2018-01-14T14:12:23.943Z,20.80
2018-01-14T14:13:30.184Z,19.42
2018-01-14T14:14:36.546Z,20.48
2018-01-14T14:15:42.908Z,20.05
2018-01-14T14:16:49.060Z,21.42
2018-01-14T14:17:56.448Z,21.08
2018-01-14T14:19:02.308Z,20.77
2018-01-14T14:20:08.519Z,20.25
2018-01-14T14:21:14.784Z,19.77